Terminal Aerodrome Forecast
Issued by NWS Newport/Morehead City, NC

Home | Current Version | Previous Version | Text Only | Print | Product List | Glossary Off
Versions: 1 2 3 4 5 6 7 8 9 10 11 12 13 14 15

000
FTUS42 KMHX 272321
TAFEWN
TAF
KEWN 272321Z 2800/2824 36006KT P6SM BKN250
     FM280200 02005KT P6SM SCT015
     FM280800 02008KT P6SM SCT250
     FM281600 02012KT P6SM BKN150=

USA.gov is the U.S. government's official web portal to all federal, state and local government web resources and services.